sensor_id;sensor_type;location;lat;lon;timestamp;pressure;altitude;pressure_sealevel;temperature;humidity
18858;BME280;9558;50.178;8.370;2023-10-13T00:01:50;98210.38;;;14.87;100.00
18858;BME280;9558;50.178;8.370;2023-10-13T00:04:38;98211.38;;;14.86;100.00
18858;BME280;9558;50.178;8.370;2023-10-13T00:07:25;98205.16;;;14.87;100.00
18858;BME280;9558;50.178;8.370;2023-10-13T00:10:13;98203.56;;;14.86;100.00
18858;BME280;9558;50.178;8.370;2023-10-13T00:13:05;98199.94;;;14.87;100.00
18858;BME280;9558;50.178;8.370;2023-10-13T00:15:57;98201.16;;;14.84;100.00
18858;BME280;9558;50.178;8.370;2023-10-13T00:18:44;98206.56;;;14.83;100.00
18858;BME280;9558;50.178;8.370;2023-10-13T00:21:31;98198.75;;;14.83;100.00
18858;BME280;9558;50.178;8.370;2023-10-13T00:24:18;98193.53;;;14.83;100.00
18858;BME280;9558;50.178;8.370;2023-10-13T00:27:10;98196.13;;;14.83;100.00
18858;BME280;9558;50.178;8.370;2023-10-13T00:30:14;98195.16;;;14.84;100.00
18858;BME280;9558;50.178;8.370;2023-10-13T00:33:07;98197.16;;;14.82;100.00
18858;BME280;9558;50.178;8.370;2023-10-13T00:35:55;98192.94;;;14.81;100.00
18858;BME280;9558;50.178;8.370;2023-10-13T00:38:43;98192.53;;;14.84;100.00
18858;BME280;9558;50.178;8.370;2023-10-13T00:41:33;98207.78;;;14.80;100.00
18858;BME280;9558;50.178;8.370;2023-10-13T00:44:36;98195.56;;;14.81;100.00
18858;BME280;9558;50.178;8.370;2023-10-13T00:47:29;98205.78;;;14.82;100.00
18858;BME280;9558;50.178;8.370;2023-10-13T00:50:34;98193.53;;;14.83;100.00
18858;BME280;9558;50.178;8.370;2023-10-13T00:53:22;98190.94;;;14.83;100.00
18858;BME280;9558;50.178;8.370;2023-10-13T00:56:10;98183.72;;;14.85;100.00
18858;BME280;9558;50.178;8.370;2023-10-13T00:59:04;98173.09;;;14.86;100.00
18858;BME280;9558;50.178;8.370;2023-10-13T01:01:51;98171.50;;;14.85;100.00
18858;BME280;9558;50.178;8.370;2023-10-13T01:04:41;98164.47;;;14.86;100.00
18858;BME280;9558;50.178;8.370;2023-10-13T01:07:28;98171.50;;;14.85;100.00
18858;BME280;9558;50.178;8.370;2023-10-13T01:10:14;98179.09;;;14.87;100.00
18858;BME280;9558;50.178;8.370;2023-10-13T01:13:01;98172.91;;;14.88;100.00
18858;BME280;9558;50.178;8.370;2023-10-13T01:15:50;98170.69;;;14.85;100.00
18858;BME280;9558;50.178;8.370;2023-10-13T01:18:37;98175.91;;;14.85;100.00
18858;BME280;9558;50.178;8.370;2023-10-13T01:21:34;98171.91;;;14.82;100.00
18858;BME280;9558;50.178;8.370;2023-10-13T01:24:22;98176.31;;;14.82;100.00
18858;BME280;9558;50.178;8.370;2023-10-13T01:27:10;98167.06;;;14.86;100.00
18858;BME280;9558;50.178;8.370;2023-10-13T01:30:04;98179.72;;;14.82;100.00
18858;BME280;9558;50.178;8.370;2023-10-13T01:32:55;98184.94;;;14.82;100.00
18858;BME280;9558;50.178;8.370;2023-10-13T01:35:45;98181.13;;;14.85;100.00
18858;BME280;9558;50.178;8.370;2023-10-13T01:38:32;98169.88;;;14.84;100.00
18858;BME280;9558;50.178;8.370;2023-10-13T01:41:22;98178.09;;;14.81;100.00
18858;BME280;9558;50.178;8.370;2023-10-13T01:44:08;98175.09;;;14.84;100.00
18858;BME280;9558;50.178;8.370;2023-10-13T01:46:57;98172.50;;;14.84;100.00
18858;BME280;9558;50.178;8.370;2023-10-13T01:49:44;98161.88;;;14.86;100.00
18858;BME280;9558;50.178;8.370;2023-10-13T01:52:32;98157.69;;;14.85;100.00
18858;BME280;9558;50.178;8.370;2023-10-13T01:55:19;98154.47;;;14.83;100.00
18858;BME280;9558;50.178;8.370;2023-10-13T01:58:06;98157.06;;;14.83;100.00
18858;BME280;9558;50.178;8.370;2023-10-13T02:01:00;98140.03;;;14.87;100.00
18858;BME280;9558;50.178;8.370;2023-10-13T02:03:47;98141.84;;;14.86;100.00
18858;BME280;9558;50.178;8.370;2023-10-13T02:06:35;98131.78;;;14.90;100.00
18858;BME280;9558;50.178;8.370;2023-10-13T02:09:21;98134.03;;;14.93;100.00
18858;BME280;9558;50.178;8.370;2023-10-13T02:12:12;98132.59;;;14.97;100.00
18858;BME280;9558;50.178;8.370;2023-10-13T02:14:59;98134.59;;;15.02;100.00
18858;BME280;9558;50.178;8.370;2023-10-13T02:17:46;98132.56;;;15.04;100.00
18858;BME280;9558;50.178;8.370;2023-10-13T02:20:37;98128.56;;;15.08;100.00
18858;BME280;9558;50.178;8.370;2023-10-13T02:23:30;98121.53;;;15.09;100.00
18858;BME280;9558;50.178;8.370;2023-10-13T02:26:16;98110.53;;;15.07;100.00
18858;BME280;9558;50.178;8.370;2023-10-13T02:29:15;98103.69;;;15.06;100.00
18858;BME280;9558;50.178;8.370;2023-10-13T02:32:04;98100.69;;;15.09;100.00
18858;BME280;9558;50.178;8.370;2023-10-13T02:34:58;98100.69;;;15.09;100.00
18858;BME280;9558;50.178;8.370;2023-10-13T02:37:52;98090.25;;;15.09;100.00
18858;BME280;9558;50.178;8.370;2023-10-13T02:40:42;98084.03;;;15.10;100.00
18858;BME280;9558;50.178;8.370;2023-10-13T02:43:29;98080.84;;;15.08;100.00
18858;BME280;9558;50.178;8.370;2023-10-13T02:46:19;98086.84;;;15.08;100.00
18858;BME280;9558;50.178;8.370;2023-10-13T02:49:08;98075.63;;;15.08;100.00
18858;BME280;9558;50.178;8.370;2023-10-13T02:51:56;98079.03;;;15.08;100.00
18858;BME280;9558;50.178;8.370;2023-10-13T02:54:44;98091.28;;;15.08;100.00
18858;BME280;9558;50.178;8.370;2023-10-13T02:57:32;98079.25;;;15.07;100.00
18858;BME280;9558;50.178;8.370;2023-10-13T03:00:20;98067.00;;;15.07;100.00
18858;BME280;9558;50.178;8.370;2023-10-13T03:03:09;98066.84;;;15.02;100.00
18858;BME280;9558;50.178;8.370;2023-10-13T03:05:58;98076.44;;;15.01;100.00
18858;BME280;9558;50.178;8.370;2023-10-13T03:08:45;98064.03;;;15.03;100.00
18858;BME280;9558;50.178;8.370;2023-10-13T03:11:31;98062.84;;;14.99;100.00
18858;BME280;9558;50.178;8.370;2023-10-13T03:14:20;98074.88;;;15.00;100.00
18858;BME280;9558;50.178;8.370;2023-10-13T03:17:09;98068.84;;;15.00;100.00
18858;BME280;9558;50.178;8.370;2023-10-13T03:20:00;98065.22;;;15.01;100.00
18858;BME280;9558;50.178;8.370;2023-10-13T03:22:53;98062.84;;;14.99;100.00
18858;BME280;9558;50.178;8.370;2023-10-13T03:25:39;98050.59;;;15.00;100.00
18858;BME280;9558;50.178;8.370;2023-10-13T03:28:28;98058.03;;;14.96;100.00
18858;BME280;9558;50.178;8.370;2023-10-13T03:31:19;98061.84;;;14.94;100.00
18858;BME280;9558;50.178;8.370;2023-10-13T03:34:12;98053.25;;;14.93;100.00
18858;BME280;9558;50.178;8.370;2023-10-13T03:37:00;98051.63;;;14.92;100.00
18858;BME280;9558;50.178;8.370;2023-10-13T03:39:57;98049.59;;;14.94;100.00
18858;BME280;9558;50.178;8.370;2023-10-13T03:42:45;98040.78;;;14.95;100.00
18858;BME280;9558;50.178;8.370;2023-10-13T03:45:45;98052.81;;;14.96;100.00
18858;BME280;9558;50.178;8.370;2023-10-13T03:48:33;98055.22;;;14.98;100.00
18858;BME280;9558;50.178;8.370;2023-10-13T03:51:37;98041.56;;;15.02;100.00
18858;BME280;9558;50.178;8.370;2023-10-13T03:54:24;98052.78;;;15.03;100.00
18858;BME280;9558;50.178;8.370;2023-10-13T03:57:16;98045.78;;;15.03;100.00
18858;BME280;9558;50.178;8.370;2023-10-13T04:00:04;98042.75;;;15.07;100.00
18858;BME280;9558;50.178;8.370;2023-10-13T04:02:55;98034.31;;;15.04;100.00
18858;BME280;9558;50.178;8.370;2023-10-13T04:05:53;98022.91;;;15.06;100.00
18858;BME280;9558;50.178;8.370;2023-10-13T04:08:51;98019.50;;;15.05;100.00
18858;BME280;9558;50.178;8.370;2023-10-13T04:11:52;98007.88;;;15.08;100.00
18858;BME280;9558;50.178;8.370;2023-10-13T04:15:09;98020.69;;;15.09;100.00
18858;BME280;9558;50.178;8.370;2023-10-13T04:18:04;98013.66;;;15.10;100.00
18858;BME280;9558;50.178;8.370;2023-10-13T04:21:04;98007.44;;;15.11;100.00
18858;BME280;9558;50.178;8.370;2023-10-13T04:24:05;98008.03;;;15.13;100.00
18858;BME280;9558;50.178;8.370;2023-10-13T04:27:09;98010.22;;;15.16;100.00
18858;BME280;9558;50.178;8.370;2023-10-13T04:30:16;98010.81;;;15.18;100.00
18858;BME280;9558;50.178;8.370;2023-10-13T04:33:10;98014.22;;;15.18;100.00
18858;BME280;9558;50.178;8.370;2023-10-13T04:36:20;98006.81;;;15.15;100.00
18858;BME280;9558;50.178;8.370;2023-10-13T04:39:21;97990.19;;;15.16;100.00
18858;BME280;9558;50.178;8.370;2023-10-13T04:42:20;97992.38;;;15.19;100.00
18858;BME280;9558;50.178;8.370;2023-10-13T04:45:26;97990.97;;;15.17;100.00
18858;BME280;9558;50.178;8.370;2023-10-13T04:48:39;97994.78;;;15.14;100.00
18858;BME280;9558;50.178;8.370;2023-10-13T04:51:32;97989.00;;;15.12;100.00
18858;BME280;9558;50.178;8.370;2023-10-13T04:54:37;97975.75;;;15.14;100.00
18858;BME280;9558;50.178;8.370;2023-10-13T04:57:35;97991.41;;;15.14;100.00
18858;BME280;9558;50.178;8.370;2023-10-13T05:00:33;97965.31;;;15.14;100.00
18858;BME280;9558;50.178;8.370;2023-10-13T05:04:02;97972.16;;;15.15;100.00
18858;BME280;9558;50.178;8.370;2023-10-13T05:07:07;97962.72;;;15.14;100.00
18858;BME280;9558;50.178;8.370;2023-10-13T05:10:10;97971.34;;;15.14;100.00
18858;BME280;9558;50.178;8.370;2023-10-13T05:13:15;97972.50;;;15.18;100.00
18858;BME280;9558;50.178;8.370;2023-10-13T05:16:21;97966.50;;;15.18;100.00
18858;BME280;9558;50.178;8.370;2023-10-13T05:19:25;97973.34;;;15.19;100.00
18858;BME280;9558;50.178;8.370;2023-10-13T05:22:30;97970.31;;;15.22;100.00
18858;BME280;9558;50.178;8.370;2023-10-13T05:25:35;97964.06;;;15.23;100.00
18858;BME280;9558;50.178;8.370;2023-10-13T05:28:42;97968.88;;;15.26;100.00
18858;BME280;9558;50.178;8.370;2023-10-13T05:31:47;97977.84;;;15.30;100.00
18858;BME280;9558;50.178;8.370;2023-10-13T05:35:04;97976.63;;;15.33;100.00
18858;BME280;9558;50.178;8.370;2023-10-13T05:38:08;97975.63;;;15.34;100.00
18858;BME280;9558;50.178;8.370;2023-10-13T05:41:12;97980.44;;;15.37;100.00
18858;BME280;9558;50.178;8.370;2023-10-13T05:44:16;97980.00;;;15.40;100.00
18858;BME280;9558;50.178;8.370;2023-10-13T05:47:39;97973.13;;;15.46;100.00
18858;BME280;9558;50.178;8.370;2023-10-13T05:50:32;97965.09;;;15.47;100.00
18858;BME280;9558;50.178;8.370;2023-10-13T05:53:33;97975.50;;;15.54;100.00
18858;BME280;9558;50.178;8.370;2023-10-13T05:56:40;97973.06;;;15.59;100.00
18858;BME280;9558;50.178;8.370;2023-10-13T05:59:44;97970.25;;;15.61;100.00
18858;BME280;9558;50.178;8.370;2023-10-13T06:02:50;97969.03;;;15.63;100.00
18858;BME280;9558;50.178;8.370;2023-10-13T06:05:54;97963.38;;;15.66;100.00
18858;BME280;9558;50.178;8.370;2023-10-13T06:09:07;97962.94;;;15.69;100.00
18858;BME280;9558;50.178;8.370;2023-10-13T06:12:12;97961.72;;;15.72;100.00
18858;BME280;9558;50.178;8.370;2023-10-13T06:15:16;97962.09;;;15.76;100.00
18858;BME280;9558;50.178;8.370;2023-10-13T06:18:22;97955.06;;;15.76;100.00
18858;BME280;9558;50.178;8.370;2023-10-13T06:21:26;97963.91;;;15.82;100.00
18858;BME280;9558;50.178;8.370;2023-10-13T06:24:31;97967.06;;;15.84;100.00
18858;BME280;9558;50.178;8.370;2023-10-13T06:27:35;97972.88;;;15.86;100.00
18858;BME280;9558;50.178;8.370;2023-10-13T06:30:40;97972.28;;;15.84;100.00
18858;BME280;9558;50.178;8.370;2023-10-13T06:33:28;97971.84;;;15.87;100.00
18858;BME280;9558;50.178;8.370;2023-10-13T06:36:15;97976.06;;;15.88;100.00
18858;BME280;9558;50.178;8.370;2023-10-13T06:39:03;97979.25;;;15.90;100.00
18858;BME280;9558;50.178;8.370;2023-10-13T06:42:05;97980.44;;;15.94;100.00
18858;BME280;9558;50.178;8.370;2023-10-13T06:44:51;97982.03;;;15.95;100.00
18858;BME280;9558;50.178;8.370;2023-10-13T06:47:38;97989.22;;;16.00;100.00
18858;BME280;9558;50.178;8.370;2023-10-13T06:50:30;97983.13;;;16.06;100.00
18858;BME280;9558;50.178;8.370;2023-10-13T06:53:24;97988.50;;;16.11;100.00
18858;BME280;9558;50.178;8.370;2023-10-13T06:56:13;97985.84;;;16.18;100.00
18858;BME280;9558;50.178;8.370;2023-10-13T06:59:03;97990.97;;;16.24;100.00
18858;BME280;9558;50.178;8.370;2023-10-13T07:01:53;97977.31;;;16.29;100.00
18858;BME280;9558;50.178;8.370;2023-10-13T07:04:40;97976.88;;;16.32;100.00
18858;BME280;9558;50.178;8.370;2023-10-13T07:07:28;97975.53;;;16.41;100.00
18858;BME280;9558;50.178;8.370;2023-10-13T07:10:15;97970.91;;;16.44;100.00
18858;BME280;9558;50.178;8.370;2023-10-13T07:13:02;97981.50;;;16.49;100.00
18858;BME280;9558;50.178;8.370;2023-10-13T07:15:53;97975.41;;;16.55;100.00
18858;BME280;9558;50.178;8.370;2023-10-13T07:18:45;97978.53;;;16.64;100.00
18858;BME280;9558;50.178;8.370;2023-10-13T07:21:38;97972.56;;;16.75;100.00
18858;BME280;9558;50.178;8.370;2023-10-13T07:24:32;97971.91;;;16.80;100.00
18858;BME280;9558;50.178;8.370;2023-10-13T07:27:19;97977.06;;;16.86;100.00
18858;BME280;9558;50.178;8.370;2023-10-13T07:30:12;97982.66;;;16.90;100.00
18858;BME280;9558;50.178;8.370;2023-10-13T07:33:00;97973.13;;;16.96;100.00
18858;BME280;9558;50.178;8.370;2023-10-13T07:35:47;97979.31;;;17.01;100.00
18858;BME280;9558;50.178;8.370;2023-10-13T07:38:37;97979.00;;;17.09;100.00
18858;BME280;9558;50.178;8.370;2023-10-13T07:41:29;97985.50;;;17.19;100.00
18858;BME280;9558;50.178;8.370;2023-10-13T07:44:18;97976.63;;;17.20;100.00
18858;BME280;9558;50.178;8.370;2023-10-13T07:47:10;97971.78;;;17.23;100.00
18858;BME280;9558;50.178;8.370;2023-10-13T07:49:56;97970.41;;;17.21;100.00
18858;BME280;9558;50.178;8.370;2023-10-13T07:52:43;97984.72;;;17.18;100.00
18858;BME280;9558;50.178;8.370;2023-10-13T07:55:45;97971.63;;;17.18;100.00
18858;BME280;9558;50.178;8.370;2023-10-13T07:58:34;97970.19;;;17.22;100.00
18858;BME280;9558;50.178;8.370;2023-10-13T08:01:31;97971.56;;;17.25;100.00
18858;BME280;9558;50.178;8.370;2023-10-13T08:04:19;97977.78;;;17.24;100.00
18858;BME280;9558;50.178;8.370;2023-10-13T08:07:14;97972.91;;;17.27;100.00
18858;BME280;9558;50.178;8.370;2023-10-13T08:10:01;97972.03;;;17.34;100.00
18858;BME280;9558;50.178;8.370;2023-10-13T08:12:47;97963.38;;;17.33;100.00
18858;BME280;9558;50.178;8.370;2023-10-13T08:15:40;97963.59;;;17.32;100.00
18858;BME280;9558;50.178;8.370;2023-10-13T08:18:32;97957.94;;;17.35;100.00
18858;BME280;9558;50.178;8.370;2023-10-13T08:21:21;97950.66;;;17.37;100.00
18858;BME280;9558;50.178;8.370;2023-10-13T08:24:09;97946.66;;;17.34;100.00
18858;BME280;9558;50.178;8.370;2023-10-13T08:27:01;97946.19;;;17.37;100.00
18858;BME280;9558;50.178;8.370;2023-10-13T08:30:19;97953.13;;;17.32;100.00
18858;BME280;9558;50.178;8.370;2023-10-13T08:33:17;97948.50;;;17.34;100.00
18858;BME280;9558;50.178;8.370;2023-10-13T08:36:07;97948.25;;;17.35;100.00
18858;BME280;9558;50.178;8.370;2023-10-13T08:39:13;97951.88;;;17.34;100.00
18858;BME280;9558;50.178;8.370;2023-10-13T08:42:29;97938.94;;;17.39;100.00
18858;BME280;9558;50.178;8.370;2023-10-13T08:45:36;97937.34;;;17.50;100.00
18858;BME280;9558;50.178;8.370;2023-10-13T08:48:38;97934.19;;;17.60;100.00
18858;BME280;9558;50.178;8.370;2023-10-13T08:51:25;97921.78;;;17.67;100.00
18858;BME280;9558;50.178;8.370;2023-10-13T08:54:29;97907.34;;;17.76;100.00
18858;BME280;9558;50.178;8.370;2023-10-13T08:57:31;97920.88;;;17.85;100.00
18858;BME280;9558;50.178;8.370;2023-10-13T09:00:19;97904.63;;;17.95;100.00
18858;BME280;9558;50.178;8.370;2023-10-13T09:03:35;97903.47;;;18.03;100.00
18858;BME280;9558;50.178;8.370;2023-10-13T09:06:26;97903.94;;;18.11;100.00
18858;BME280;9558;50.178;8.370;2023-10-13T09:09:13;97919.06;;;18.21;100.00
18858;BME280;9558;50.178;8.370;2023-10-13T09:12:13;97912.88;;;18.27;100.00
18858;BME280;9558;50.178;8.370;2023-10-13T09:15:01;97923.91;;;18.41;100.00
18858;BME280;9558;50.178;8.370;2023-10-13T09:17:51;97917.84;;;18.53;100.00
18858;BME280;9558;50.178;8.370;2023-10-13T09:20:59;97901.84;;;18.66;100.00
18858;BME280;9558;50.178;8.370;2023-10-13T09:24:09;97910.91;;;18.87;100.00
18858;BME280;9558;50.178;8.370;2023-10-13T09:27:13;97908.16;;;19.11;100.00
18858;BME280;9558;50.178;8.370;2023-10-13T09:30:02;97898.00;;;19.31;100.00
18858;BME280;9558;50.178;8.370;2023-10-13T09:33:02;97901.09;;;19.45;100.00
18858;BME280;9558;50.178;8.370;2023-10-13T09:35:50;97906.19;;;19.52;100.00
18858;BME280;9558;50.178;8.370;2023-10-13T09:38:39;97903.16;;;19.60;100.00
18858;BME280;9558;50.178;8.370;2023-10-13T09:41:28;97898.78;;;19.66;100.00
18858;BME280;9558;50.178;8.370;2023-10-13T09:44:18;97892.00;;;19.70;100.00
18858;BME280;9558;50.178;8.370;2023-10-13T09:47:10;97895.66;;;19.69;100.00
18858;BME280;9558;50.178;8.370;2023-10-13T09:50:04;97893.28;;;19.67;100.00
18858;BME280;9558;50.178;8.370;2023-10-13T09:53:00;97887.38;;;19.77;100.00
18858;BME280;9558;50.178;8.370;2023-10-13T09:55:48;97893.03;;;19.86;100.00
18858;BME280;9558;50.178;8.370;2023-10-13T09:58:39;97895.50;;;19.93;100.00
18858;BME280;9558;50.178;8.370;2023-10-13T10:01:33;97900.25;;;19.96;100.00
18858;BME280;9558;50.178;8.370;2023-10-13T10:04:23;97892.28;;;20.08;100.00
18858;BME280;9558;50.178;8.370;2023-10-13T10:07:09;97883.78;;;20.23;100.00
18858;BME280;9558;50.178;8.370;2023-10-13T10:09:57;97886.88;;;20.42;100.00
18858;BME280;9558;50.178;8.370;2023-10-13T10:12:48;97890.78;;;20.61;100.00
18858;BME280;9558;50.178;8.370;2023-10-13T10:15:43;97887.06;;;20.79;100.00
18858;BME280;9558;50.178;8.370;2023-10-13T10:18:33;97889.81;;;20.95;100.00
18858;BME280;9558;50.178;8.370;2023-10-13T10:21:20;97890.50;;;21.12;100.00
18858;BME280;9558;50.178;8.370;2023-10-13T10:24:15;97883.72;;;21.21;99.12
18858;BME280;9558;50.178;8.370;2023-10-13T10:27:09;97883.81;;;21.32;98.63
18858;BME280;9558;50.178;8.370;2023-10-13T10:30:00;97865.56;;;21.52;99.18
18858;BME280;9558;50.178;8.370;2023-10-13T10:32:54;97883.84;;;21.69;97.42
18858;BME280;9558;50.178;8.370;2023-10-13T10:35:46;97868.88;;;21.80;93.63
18858;BME280;9558;50.178;8.370;2023-10-13T10:38:32;97857.88;;;21.94;95.92
18858;BME280;9558;50.178;8.370;2023-10-13T10:41:27;97850.84;;;22.09;95.12
18858;BME280;9558;50.178;8.370;2023-10-13T10:44:25;97854.84;;;22.22;92.38
18858;BME280;9558;50.178;8.370;2023-10-13T10:47:19;97847.44;;;22.24;91.50
18858;BME280;9558;50.178;8.370;2023-10-13T10:50:25;97846.66;;;22.24;90.92
18858;BME280;9558;50.178;8.370;2023-10-13T10:53:20;97846.38;;;22.15;90.07
18858;BME280;9558;50.178;8.370;2023-10-13T10:56:22;97839.00;;;22.12;90.37
18858;BME280;9558;50.178;8.370;2023-10-13T10:59:10;97834.25;;;22.14;89.92
18858;BME280;9558;50.178;8.370;2023-10-13T11:02:04;97820.03;;;22.15;89.87
18858;BME280;9558;50.178;8.370;2023-10-13T11:04:53;97821.09;;;22.19;90.52
18858;BME280;9558;50.178;8.370;2023-10-13T11:07:46;97813.72;;;22.26;89.24
18858;BME280;9558;50.178;8.370;2023-10-13T11:10:46;97823.72;;;22.24;89.03
18858;BME280;9558;50.178;8.370;2023-10-13T11:13:41;97812.41;;;22.24;88.94
18858;BME280;9558;50.178;8.370;2023-10-13T11:16:36;97819.50;;;22.23;87.59
18858;BME280;9558;50.178;8.370;2023-10-13T11:19:33;97822.91;;;22.19;87.60
18858;BME280;9558;50.178;8.370;2023-10-13T11:22:21;97808.16;;;22.23;86.52
18858;BME280;9558;50.178;8.370;2023-10-13T11:25:25;97792.59;;;22.16;84.79
18858;BME280;9558;50.178;8.370;2023-10-13T11:28:17;97794.72;;;22.14;85.32
18858;BME280;9558;50.178;8.370;2023-10-13T11:31:05;97793.13;;;22.08;85.70
18858;BME280;9558;50.178;8.370;2023-10-13T11:33:59;97781.50;;;22.09;86.20
18858;BME280;9558;50.178;8.370;2023-10-13T11:36:47;97785.47;;;22.12;86.27
18858;BME280;9558;50.178;8.370;2023-10-13T11:39:34;97780.22;;;22.17;86.47
18858;BME280;9558;50.178;8.370;2023-10-13T11:42:29;97782.06;;;22.16;84.50
18858;BME280;9558;50.178;8.370;2023-10-13T11:45:16;97769.94;;;22.15;84.67
18858;BME280;9558;50.178;8.370;2023-10-13T11:48:14;97770.22;;;22.14;86.00
18858;BME280;9558;50.178;8.370;2023-10-13T11:51:02;97767.84;;;22.12;84.88
18858;BME280;9558;50.178;8.370;2023-10-13T11:53:52;97763.59;;;22.06;84.65
18858;BME280;9558;50.178;8.370;2023-10-13T11:56:39;97762.28;;;22.08;84.87
18858;BME280;9558;50.178;8.370;2023-10-13T11:59:27;97754.91;;;22.10;84.99
18858;BME280;9558;50.178;8.370;2023-10-13T12:02:14;97748.31;;;22.13;86.22
18858;BME280;9558;50.178;8.370;2023-10-13T12:05:18;97743.59;;;22.15;86.50
18858;BME280;9558;50.178;8.370;2023-10-13T12:08:13;97743.06;;;22.18;85.25
18858;BME280;9558;50.178;8.370;2023-10-13T12:11:07;97763.63;;;22.21;85.19
18858;BME280;9558;50.178;8.370;2023-10-13T12:14:08;97756.50;;;22.22;84.69
18858;BME280;9558;50.178;8.370;2023-10-13T12:17:06;97746.22;;;22.20;84.78
18858;BME280;9558;50.178;8.370;2023-10-13T12:19:56;97737.78;;;22.18;85.12
18858;BME280;9558;50.178;8.370;2023-10-13T12:22:44;97739.38;;;22.19;84.29
18858;BME280;9558;50.178;8.370;2023-10-13T12:25:40;97729.88;;;22.18;83.48
18858;BME280;9558;50.178;8.370;2023-10-13T12:28:45;97727.25;;;22.18;83.82
18858;BME280;9558;50.178;8.370;2023-10-13T12:31:37;97731.47;;;22.24;80.67
18858;BME280;9558;50.178;8.370;2023-10-13T12:34:26;97725.66;;;22.17;83.60
18858;BME280;9558;50.178;8.370;2023-10-13T12:37:32;97714.31;;;22.12;80.38
18858;BME280;9558;50.178;8.370;2023-10-13T12:40:36;97717.25;;;22.15;82.20
18858;BME280;9558;50.178;8.370;2023-10-13T12:43:40;97718.81;;;22.21;81.20
18858;BME280;9558;50.178;8.370;2023-10-13T12:46:44;97710.13;;;22.21;77.44
18858;BME280;9558;50.178;8.370;2023-10-13T12:49:50;97700.38;;;22.26;81.10
18858;BME280;9558;50.178;8.370;2023-10-13T12:52:45;97700.38;;;22.32;79.28
18858;BME280;9558;50.178;8.370;2023-10-13T12:55:31;97701.94;;;22.27;81.60
18858;BME280;9558;50.178;8.370;2023-10-13T12:58:18;97697.19;;;22.24;79.22
18858;BME280;9558;50.178;8.370;2023-10-13T13:01:12;97695.63;;;22.29;80.73
18858;BME280;9558;50.178;8.370;2023-10-13T13:04:00;97695.63;;;22.29;80.64
18858;BME280;9558;50.178;8.370;2023-10-13T13:06:50;97694.59;;;22.35;79.76
18858;BME280;9558;50.178;8.370;2023-10-13T13:09:40;97686.44;;;22.36;80.25
18858;BME280;9558;50.178;8.370;2023-10-13T13:12:27;97694.09;;;22.38;79.83
18858;BME280;9558;50.178;8.370;2023-10-13T13:15:14;97699.88;;;22.40;79.63
18858;BME280;9558;50.178;8.370;2023-10-13T13:18:01;97688.81;;;22.38;79.50
18858;BME280;9558;50.178;8.370;2023-10-13T13:20:56;97690.66;;;22.42;79.20
18858;BME280;9558;50.178;8.370;2023-10-13T13:23:46;97679.31;;;22.42;77.52
18858;BME280;9558;50.178;8.370;2023-10-13T13:26:33;97679.31;;;22.42;76.87
18858;BME280;9558;50.178;8.370;2023-10-13T13:29:20;97679.31;;;22.42;75.92
18858;BME280;9558;50.178;8.370;2023-10-13T13:32:07;97666.66;;;22.44;75.99
18858;BME280;9558;50.178;8.370;2023-10-13T13:35:03;97660.63;;;22.43;76.11
18858;BME280;9558;50.178;8.370;2023-10-13T13:37:51;97657.44;;;22.47;74.98
18858;BME280;9558;50.178;8.370;2023-10-13T13:40:40;97649.25;;;22.53;75.47
18858;BME280;9558;50.178;8.370;2023-10-13T13:43:29;97653.97;;;22.61;76.46
18858;BME280;9558;50.178;8.370;2023-10-13T13:46:24;97648.72;;;22.61;76.32
18858;BME280;9558;50.178;8.370;2023-10-13T13:49:13;97644.22;;;22.67;74.53
18858;BME280;9558;50.178;8.370;2023-10-13T13:52:04;97637.63;;;22.70;75.13
18858;BME280;9558;50.178;8.370;2023-10-13T13:54:51;97640.78;;;22.72;75.27
18858;BME280;9558;50.178;8.370;2023-10-13T13:57:39;97629.16;;;22.78;75.31
18858;BME280;9558;50.178;8.370;2023-10-13T14:00:26;97631.50;;;22.90;74.83
18858;BME280;9558;50.178;8.370;2023-10-13T14:03:22;97614.84;;;23.00;74.49
18858;BME280;9558;50.178;8.370;2023-10-13T14:06:18;97608.22;;;23.07;69.75
18858;BME280;9558;50.178;8.370;2023-10-13T14:09:07;97601.09;;;23.18;70.33
18858;BME280;9558;50.178;8.370;2023-10-13T14:12:01;97595.75;;;23.28;70.78
18858;BME280;9558;50.178;8.370;2023-10-13T14:15:08;97594.09;;;23.38;69.41
18858;BME280;9558;50.178;8.370;2023-10-13T14:18:06;97592.19;;;23.49;70.36
18858;BME280;9558;50.178;8.370;2023-10-13T14:20:58;97587.41;;;23.56;69.26
18858;BME280;9558;50.178;8.370;2023-10-13T14:23:51;97588.69;;;23.63;69.81
18858;BME280;9558;50.178;8.370;2023-10-13T14:26:39;97585.72;;;23.70;69.16
18858;BME280;9558;50.178;8.370;2023-10-13T14:29:28;97587.03;;;23.73;68.82
18858;BME280;9558;50.178;8.370;2023-10-13T14:32:16;97578.81;;;23.79;69.53
18858;BME280;9558;50.178;8.370;2023-10-13T14:35:03;97571.09;;;23.88;69.31
18858;BME280;9558;50.178;8.370;2023-10-13T14:38:00;97583.50;;;23.88;68.44
18858;BME280;9558;50.178;8.370;2023-10-13T14:40:56;97581.88;;;23.92;69.05
18858;BME280;9558;50.178;8.370;2023-10-13T14:43:43;97586.41;;;23.91;70.12
18858;BME280;9558;50.178;8.370;2023-10-13T14:46:33;97574.53;;;23.84;67.30
18858;BME280;9558;50.178;8.370;2023-10-13T14:49:23;97570.03;;;23.84;69.18
18858;BME280;9558;50.178;8.370;2023-10-13T14:52:09;97561.91;;;23.75;64.08
18858;BME280;9558;50.178;8.370;2023-10-13T14:54:56;97557.41;;;23.76;67.52
18858;BME280;9558;50.178;8.370;2023-10-13T14:57:43;97553.25;;;23.70;66.94
18858;BME280;9558;50.178;8.370;2023-10-13T15:00:30;97549.56;;;23.66;66.92
18858;BME280;9558;50.178;8.370;2023-10-13T15:03:17;97546.16;;;23.65;66.42
18858;BME280;9558;50.178;8.370;2023-10-13T15:06:05;97554.88;;;23.60;66.18
18858;BME280;9558;50.178;8.370;2023-10-13T15:08:53;97543.28;;;23.56;66.57
18858;BME280;9558;50.178;8.370;2023-10-13T15:11:40;97526.44;;;23.52;66.82
18858;BME280;9558;50.178;8.370;2023-10-13T15:14:34;97532.25;;;23.49;66.72
18858;BME280;9558;50.178;8.370;2023-10-13T15:17:22;97518.81;;;23.45;66.85
18858;BME280;9558;50.178;8.370;2023-10-13T15:20:11;97514.63;;;23.39;66.74
18858;BME280;9558;50.178;8.370;2023-10-13T15:23:04;97526.81;;;23.35;67.06
18858;BME280;9558;50.178;8.370;2023-10-13T15:25:51;97517.31;;;23.29;67.04